Time;durP1;ratioP1;P1;durP2;ratioP2;P2;SDS_P1;SDS_P2;PMS_P1;PMS_P2;Temp;Humidity;BMP_temperature;BMP_pressure;BME280_temperature;BME280_humidity;BME280_pressure;Samples;Min_cycle;Max_cycle;Signal;HPM_P1;HPM_P2
2023/09/01 00:00:13;;;;;;;7.30;3.00;;;11.80;99.90;;;;;;5073261;28;20135;-76
2023/09/01 00:02:39;;;;;;;7.95;3.35;;;11.80;99.90;;;;;;5091968;28;20056;-76
2023/09/01 00:05:06;;;;;;;4.80;2.83;;;11.90;99.90;;;;;;5092317;28;20071;-75
2023/09/01 00:07:32;;;;;;;5.55;3.20;;;11.90;99.90;;;;;;5073342;28;20169;-75
2023/09/01 00:09:58;;;;;;;6.22;2.50;;;11.60;99.90;;;;;;5073350;28;20134;-75
2023/09/01 00:12:25;;;;;;;6.80;3.28;;;11.50;99.90;;;;;;5074072;28;20116;-76
2023/09/01 00:14:51;;;;;;;6.43;3.28;;;11.50;99.90;;;;;;5091215;28;20044;-76
2023/09/01 00:17:16;;;;;;;5.32;3.70;;;11.50;99.90;;;;;;5073881;28;20059;-76
2023/09/01 00:19:42;;;;;;;5.35;3.35;;;11.50;99.90;;;;;;5076163;28;20048;-76
2023/09/01 00:22:08;;;;;;;5.60;3.15;;;11.50;99.90;;;;;;5076878;28;20131;-76
2023/09/01 00:24:34;;;;;;;6.82;3.40;;;11.50;99.90;;;;;;5077257;28;20040;-76
2023/09/01 00:27:00;;;;;;;6.43;3.47;;;11.50;99.90;;;;;;5077228;28;20157;-75
2023/09/01 00:29:26;;;;;;;6.68;3.38;;;11.40;99.90;;;;;;5095209;28;20095;-76
2023/09/01 00:31:52;;;;;;;6.50;3.75;;;11.80;99.90;;;;;;5095400;28;20495;-75
2023/09/01 00:34:18;;;;;;;8.02;3.92;;;11.40;99.90;;;;;;5095894;28;20464;-75
2023/09/01 00:36:44;;;;;;;5.32;3.35;;;11.40;99.90;;;;;;5076444;28;20080;-75
2023/09/01 00:39:10;;;;;;;6.78;3.58;;;11.40;99.90;;;;;;5095613;28;20406;-75
2023/09/01 00:41:36;;;;;;;6.22;3.70;;;11.30;99.90;;;;;;5077529;28;20546;-75
2023/09/01 00:44:03;;;;;;;5.82;3.70;;;11.30;99.90;;;;;;5094453;28;20109;-75
2023/09/01 00:46:31;;;;;;;4.75;3.50;;;11.30;99.90;;;;;;5094964;28;20165;-76
2023/09/01 00:48:58;;;;;;;5.55;3.78;;;11.30;99.90;;;;;;5077241;28;20048;-76
2023/09/01 00:51:28;;;;;;;5.70;3.53;;;11.40;99.90;;;;;;5094574;28;20047;-76
2023/09/01 00:53:54;;;;;;;5.80;3.75;;;11.30;99.90;;;;;;5095288;28;20198;-76
2023/09/01 00:56:21;;;;;;;6.78;3.70;;;11.20;99.90;;;;;;5094305;28;20055;-76
2023/09/01 00:58:47;;;;;;;6.72;3.92;;;11.20;99.90;;;;;;5095230;28;20115;-75
2023/09/01 01:01:12;;;;;;;8.02;3.63;;;11.20;99.90;;;;;;5076782;28;20063;-75
2023/09/01 01:03:39;;;;;;;8.38;3.53;;;11.20;99.90;;;;;;5094416;28;20040;-76
2023/09/01 01:06:11;;;;;;;5.10;3.60;;;11.20;99.90;;;;;;5086544;28;20602;-76
2023/09/01 01:08:40;;;;;;;6.35;3.88;;;11.20;99.90;;;;;;5094744;28;20605;-76
2023/09/01 01:11:51;;;;;;;5.75;3.83;;;11.20;99.90;;;;;;5076037;28;20044;-76
2023/09/01 01:14:26;;;;;;;6.82;3.88;;;11.20;99.90;;;;;;5043828;28;20048;-76
2023/09/01 01:16:54;;;;;;;6.85;3.90;;;11.10;99.90;;;;;;5094103;28;20098;-76
2023/09/01 01:20:02;;;;;;;9.02;4.10;;;11.10;99.90;;;;;;5076200;28;20503;-76
2023/09/01 01:22:40;;;;;;;5.75;3.63;;;11.10;99.90;;;;;;5076732;28;20484;-76
2023/09/01 01:25:10;;;;;;;6.40;4.00;;;11.10;99.90;;;;;;5075356;28;20039;-75
2023/09/01 01:27:43;;;;;;;6.50;3.85;;;11.00;99.90;;;;;;5095201;28;20051;-75
2023/09/01 01:30:13;;;;;;;6.40;3.90;;;11.00;99.90;;;;;;5074757;28;20052;-75
2023/09/01 01:32:40;;;;;;;8.75;4.28;;;11.00;99.90;;;;;;5093586;28;20047;-75
2023/09/01 01:35:24;;;;;;;6.50;3.90;;;11.00;99.90;;;;;;5093978;28;20036;-75
2023/09/01 01:38:08;;;;;;;8.02;3.60;;;11.00;99.90;;;;;;5076232;28;20067;-75
2023/09/01 01:40:35;;;;;;;5.85;4.20;;;11.00;99.90;;;;;;5075662;28;20055;-75
2023/09/01 01:43:04;;;;;;;6.80;4.03;;;11.00;99.90;;;;;;5075868;28;20075;-75
2023/09/01 01:45:31;;;;;;;6.75;4.00;;;10.90;99.90;;;;;;5074853;28;20040;-76
2023/09/01 01:47:57;;;;;;;7.13;4.10;;;11.10;99.90;;;;;;5075546;28;20044;-75
2023/09/01 01:50:23;;;;;;;6.45;3.70;;;10.90;99.90;;;;;;5088330;28;20075;-75
2023/09/01 01:52:49;;;;;;;8.50;4.13;;;10.90;99.90;;;;;;5054752;28;20071;-75
2023/09/01 01:55:15;;;;;;;8.52;4.32;;;10.90;99.90;;;;;;5060708;28;20090;-76
2023/09/01 01:57:40;;;;;;;6.45;3.83;;;10.90;99.90;;;;;;5076037;28;20101;-76
2023/09/01 02:00:11;;;;;;;7.38;4.10;;;10.90;99.90;;;;;;5075064;28;20056;-75
2023/09/01 02:02:40;;;;;;;8.98;3.97;;;10.80;99.90;;;;;;5075501;28;20093;-76
2023/09/01 02:05:07;;;;;;;6.63;4.00;;;10.80;99.90;;;;;;5093399;28;20047;-75
2023/09/01 02:07:33;;;;;;;6.53;3.83;;;10.80;99.90;;;;;;5075356;28;20044;-76
2023/09/01 02:09:59;;;;;;;5.95;3.80;;;10.80;99.90;;;;;;5093798;28;20047;-75
2023/09/01 02:12:24;;;;;;;8.45;4.00;;;10.80;99.90;;;;;;5094234;28;20540;-75
2023/09/01 02:14:50;;;;;;;6.78;3.70;;;10.80;99.90;;;;;;5092174;28;20094;-75
2023/09/01 02:17:16;;;;;;;6.05;4.00;;;10.80;99.90;;;;;;5093165;28;20051;-75
2023/09/01 02:19:41;;;;;;;8.43;4.20;;;10.70;99.90;;;;;;5075246;28;20044;-75
2023/09/01 02:22:07;;;;;;;8.38;3.83;;;10.70;99.90;;;;;;5092614;28;20399;-75
2023/09/01 02:24:33;;;;;;;6.43;4.00;;;10.70;99.90;;;;;;5075292;28;20078;-75
2023/09/01 02:26:59;;;;;;;8.32;4.28;;;10.70;99.90;;;;;;5093263;28;20047;-75
2023/09/01 02:29:26;;;;;;;6.43;3.90;;;10.70;99.90;;;;;;5074742;28;20044;-75
2023/09/01 02:31:53;;;;;;;5.45;3.50;;;10.60;99.90;;;;;;5074396;28;20044;-75
2023/09/01 02:34:19;;;;;;;6.72;4.00;;;10.60;99.90;;;;;;5093510;28;20050;-75
2023/09/01 02:36:45;;;;;;;6.88;4.05;;;10.60;99.90;;;;;;5074602;28;20044;-75
2023/09/01 02:39:11;;;;;;;6.32;4.30;;;10.60;99.90;;;;;;5074563;28;20063;-75
2023/09/01 02:41:37;;;;;;;6.28;4.03;;;10.60;99.90;;;;;;5074995;28;20463;-75
2023/09/01 02:44:03;;;;;;;7.90;3.88;;;10.60;99.90;;;;;;5092452;28;20075;-75
2023/09/01 02:46:29;;;;;;;6.00;4.00;;;10.60;99.90;;;;;;5074696;28;20163;-75
2023/09/01 02:48:55;;;;;;;5.72;4.00;;;10.60;99.90;;;;;;5091880;28;20054;-75
2023/09/01 02:51:21;;;;;;;5.57;3.58;;;10.60;99.90;;;;;;5093144;28;20454;-75
2023/09/01 02:53:47;;;;;;;7.68;3.70;;;10.50;99.90;;;;;;5074925;28;20048;-75
2023/09/01 02:56:12;;;;;;;5.65;3.45;;;10.40;99.90;;;;;;5091979;28;20451;-75
2023/09/01 02:58:38;;;;;;;7.55;3.92;;;10.50;99.90;;;;;;5075167;28;20055;-75
2023/09/01 03:01:09;;;;;;;7.65;4.38;;;10.40;99.90;;;;;;5074300;28;20063;-75
2023/09/01 03:03:40;;;;;;;7.75;4.70;;;10.40;99.90;;;;;;5074158;28;20051;-75
2023/09/01 03:06:08;;;;;;;6.70;4.03;;;10.50;99.90;;;;;;5092598;28;20050;-75
2023/09/01 03:08:34;;;;;;;7.75;4.32;;;10.50;99.90;;;;;;5092901;28;20044;-75
2023/09/01 03:11:00;;;;;;;6.65;4.03;;;10.50;99.90;;;;;;5091986;28;20486;-75
2023/09/01 03:13:27;;;;;;;6.18;4.18;;;10.50;99.90;;;;;;5092885;28;20119;-75
2023/09/01 03:15:56;;;;;;;6.28;4.40;;;10.40;99.90;;;;;;5074170;28;20459;-75
2023/09/01 03:18:22;;;;;;;7.30;4.07;;;10.40;99.90;;;;;;5091938;28;20044;-75
2023/09/01 03:20:50;;;;;;;6.35;3.97;;;10.40;99.90;;;;;;5074479;28;20044;-75
2023/09/01 03:23:15;;;;;;;6.65;4.47;;;10.70;99.90;;;;;;5092211;28;20040;-75
2023/09/01 03:25:41;;;;;;;6.60;4.35;;;10.40;99.90;;;;;;5091528;28;20085;-75
2023/09/01 03:28:06;;;;;;;5.03;3.97;;;10.40;99.90;;;;;;5092457;28;20048;-75
2023/09/01 03:30:32;;;;;;;5.22;3.78;;;10.40;99.90;;;;;;5074546;28;20044;-75
2023/09/01 03:32:58;;;;;;;6.70;3.90;;;10.40;99.90;;;;;;5073736;28;20181;-75
2023/09/01 03:35:23;;;;;;;5.50;3.55;;;10.30;99.90;;;;;;5079906;28;20052;-75
2023/09/01 03:37:49;;;;;;;7.45;4.43;;;10.30;99.90;;;;;;5072040;28;20049;-75
2023/09/01 03:40:16;;;;;;;7.13;4.30;;;10.30;99.90;;;;;;5071792;28;20119;-75
2023/09/01 03:42:41;;;;;;;6.78;4.05;;;10.30;99.90;;;;;;5074465;28;20119;-75
2023/09/01 03:45:08;;;;;;;5.43;3.53;;;10.30;99.90;;;;;;5091500;28;20127;-75
2023/09/01 03:47:33;;;;;;;6.57;4.15;;;10.30;99.90;;;;;;5074345;28;20543;-75
2023/09/01 03:49:59;;;;;;;7.47;4.30;;;10.20;99.90;;;;;;5073817;28;20119;-75
2023/09/01 03:52:26;;;;;;;6.60;4.65;;;10.30;99.90;;;;;;5073545;28;20487;-75
2023/09/01 03:54:52;;;;;;;8.07;4.50;;;10.30;99.90;;;;;;5094424;28;20036;-75
2023/09/01 03:57:17;;;;;;;8.73;5.40;;;10.40;99.90;;;;;;5078036;28;20106;-76
2023/09/01 03:59:48;;;;;;;7.45;4.25;;;10.40;99.90;;;;;;5095221;28;20036;-75
2023/09/01 04:02:14;;;;;;;7.63;5.07;;;10.30;99.90;;;;;;5077752;28;20131;-75
2023/09/01 04:04:40;;;;;;;10.23;4.80;;;10.40;99.90;;;;;;5096504;28;20051;-75
2023/09/01 04:07:06;;;;;;;8.45;5.15;;;10.30;99.90;;;;;;5076725;28;20051;-75
2023/09/01 04:09:31;;;;;;;7.35;4.40;;;10.20;99.90;;;;;;5095994;28;20076;-75
2023/09/01 04:11:57;;;;;;;7.15;5.32;;;10.50;99.90;;;;;;5095542;28;20368;-75
2023/09/01 04:14:23;;;;;;;8.15;5.60;;;10.10;99.90;;;;;;5077439;28;20039;-75
2023/09/01 04:16:50;;;;;;;8.35;5.40;;;10.20;99.90;;;;;;5095424;28;20632;-75
2023/09/01 04:19:15;;;;;;;11.80;5.68;;;10.20;99.90;;;;;;5077182;28;20052;-75
2023/09/01 04:21:41;;;;;;;10.85;5.13;;;10.20;99.90;;;;;;5067533;28;20063;-75
2023/09/01 04:24:08;;;;;;;9.90;5.18;;;10.30;99.90;;;;;;5057519;28;20056;-75
2023/09/01 04:26:34;;;;;;;9.25;5.38;;;10.20;99.90;;;;;;5057326;28;20110;-75
2023/09/01 04:28:59;;;;;;;7.82;5.45;;;10.60;99.90;;;;;;5056504;28;20086;-75
2023/09/01 04:31:29;;;;;;;9.95;5.10;;;10.20;99.90;;;;;;5084272;28;20059;-75
2023/09/01 04:33:55;;;;;;;8.93;5.80;;;10.20;99.90;;;;;;5095319;28;20036;-75
2023/09/01 04:36:21;;;;;;;8.15;5.18;;;10.20;99.90;;;;;;5094532;28;20043;-76
2023/09/01 04:38:47;;;;;;;8.02;5.43;;;10.20;99.90;;;;;;5076926;28;20044;-75
2023/09/01 04:41:13;;;;;;;9.18;5.47;;;10.20;99.90;;;;;;5060539;28;20044;-75
2023/09/01 04:43:39;;;;;;;8.65;5.60;;;10.20;99.90;;;;;;5055547;28;20135;-75
2023/09/01 04:46:05;;;;;;;9.50;5.53;;;10.20;99.90;;;;;;5060408;28;20142;-75
2023/09/01 04:48:31;;;;;;;10.02;5.10;;;10.20;99.90;;;;;;5054765;28;20455;-75
2023/09/01 04:50:57;;;;;;;7.43;4.75;;;10.20;99.90;;;;;;5074425;28;20076;-75
2023/09/01 04:53:23;;;;;;;9.40;4.88;;;10.10;99.90;;;;;;5074854;28;20047;-76
2023/09/01 04:55:49;;;;;;;7.68;5.10;;;10.10;99.90;;;;;;5088086;28;20036;-75
2023/09/01 04:58:15;;;;;;;9.27;5.10;;;10.10;99.90;;;;;;5077121;28;20050;-75
2023/09/01 05:00:44;;;;;;;7.88;4.93;;;10.00;99.90;;;;;;5076585;28;20063;-76
2023/09/01 05:03:10;;;;;;;9.93;5.20;;;10.10;99.90;;;;;;5076000;28;20048;-75
2023/09/01 05:05:36;;;;;;;6.63;4.57;;;10.00;99.90;;;;;;5075320;28;20135;-76
2023/09/01 05:08:02;;;;;;;7.22;5.00;;;10.40;99.90;;;;;;5076607;28;20123;-76
2023/09/01 05:10:27;;;;;;;8.15;5.18;;;10.00;99.90;;;;;;5076195;28;20531;-75
2023/09/01 05:12:53;;;;;;;8.07;5.00;;;10.00;99.90;;;;;;5076256;28;20036;-76
2023/09/01 05:15:19;;;;;;;8.52;5.13;;;10.00;99.90;;;;;;5095211;28;20096;-75
2023/09/01 05:17:46;;;;;;;6.80;4.90;;;10.10;99.90;;;;;;5075799;28;20047;-75
2023/09/01 05:20:12;;;;;;;7.78;4.97;;;10.10;99.90;;;;;;5075755;28;20593;-75
2023/09/01 05:22:38;;;;;;;8.90;5.30;;;10.20;99.90;;;;;;5075780;28;20122;-75
2023/09/01 05:25:11;;;;;;;10.10;5.15;;;10.30;99.90;;;;;;5075609;28;20048;-76
2023/09/01 05:27:39;;;;;;;8.20;4.88;;;10.40;99.90;;;;;;5094538;28;20047;-75
2023/09/01 05:30:06;;;;;;;9.57;4.90;;;10.40;99.90;;;;;;5094357;28;20040;-75
2023/09/01 05:32:31;;;;;;;8.13;4.88;;;10.60;99.90;;;;;;5093395;28;20043;-75
2023/09/01 05:34:57;;;;;;;7.85;4.72;;;10.60;99.90;;;;;;5075998;28;20055;-75
2023/09/01 05:37:23;;;;;;;7.70;4.75;;;10.70;99.90;;;;;;5094482;28;20036;-75
2023/09/01 05:39:48;;;;;;;10.38;5.25;;;10.80;99.90;;;;;;5074970;28;20488;-75
2023/09/01 05:42:17;;;;;;;10.63;4.47;;;10.90;99.90;;;;;;5076091;28;20083;-76
2023/09/01 05:44:43;;;;;;;9.73;5.00;;;10.90;99.90;;;;;;5074917;28;20044;-76
2023/09/01 05:47:08;;;;;;;7.75;4.80;;;11.00;99.90;;;;;;5093569;28;20052;-75
2023/09/01 05:49:34;;;;;;;11.70;4.60;;;11.10;99.90;;;;;;5076111;28;20040;-75
2023/09/01 05:52:01;;;;;;;7.75;4.80;;;11.20;99.90;;;;;;5073547;28;20041;-75
2023/09/01 05:54:27;;;;;;;8.77;4.47;;;11.30;99.90;;;;;;5075829;28;20075;-75
2023/09/01 05:56:53;;;;;;;12.23;5.38;;;11.30;99.90;;;;;;5074676;28;20076;-75
2023/09/01 05:59:19;;;;;;;11.00;5.03;;;11.40;99.90;;;;;;5074869;28;20133;-75
2023/09/01 06:01:46;;;;;;;7.05;4.43;;;11.50;99.90;;;;;;5093233;28;20052;-75
2023/09/01 06:04:12;;;;;;;6.90;4.28;;;11.60;99.90;;;;;;5075607;28;20044;-75
2023/09/01 06:06:38;;;;;;;8.13;4.97;;;11.60;99.90;;;;;;5093229;28;20047;-75
2023/09/01 06:09:13;;;;;;;9.05;4.70;;;11.70;99.90;;;;;;5075275;28;20047;-75
2023/09/01 06:11:39;;;;;;;7.30;3.93;;;11.80;99.90;;;;;;5075667;28;20074;-75
2023/09/01 06:14:05;;;;;;;7.25;4.57;;;11.90;99.90;;;;;;5091982;28;20079;-76
2023/09/01 06:16:31;;;;;;;8.52;4.97;;;12.00;99.90;;;;;;5074949;28;20048;-75
2023/09/01 06:19:03;;;;;;;7.90;4.32;;;12.10;99.90;;;;;;5092943;28;20044;-75
2023/09/01 06:21:28;;;;;;;7.13;4.45;;;12.20;99.90;;;;;;5093045;28;20088;-75
2023/09/01 06:23:54;;;;;;;7.70;4.75;;;12.30;99.90;;;;;;5074425;28;20394;-75
2023/09/01 06:26:20;;;;;;;10.63;4.57;;;12.40;99.90;;;;;;5075531;28;20044;-76
2023/09/01 06:28:47;;;;;;;10.50;4.88;;;12.40;99.90;;;;;;5074083;28;20480;-75
2023/09/01 06:31:15;;;;;;;7.78;4.47;;;12.50;99.90;;;;;;5075340;28;20391;-75
2023/09/01 06:33:42;;;;;;;7.20;4.20;;;12.60;99.90;;;;;;5075325;28;20086;-75
2023/09/01 06:36:13;;;;;;;7.63;4.40;;;12.70;99.90;;;;;;5092620;28;20048;-75
2023/09/01 06:38:40;;;;;;;7.35;4.68;;;12.80;99.90;;;;;;5075002;28;20040;-75
2023/09/01 06:41:06;;;;;;;6.15;4.43;;;12.90;99.90;;;;;;5073931;28;20151;-75
2023/09/01 06:43:31;;;;;;;8.68;4.18;;;13.00;99.90;;;;;;5092775;28;20136;-75
2023/09/01 06:45:58;;;;;;;8.25;3.80;;;13.20;99.90;;;;;;5072691;28;20032;-75
2023/09/01 06:48:24;;;;;;;6.32;3.53;;;13.30;99.90;;;;;;5054241;28;20476;-75
2023/09/01 06:50:49;;;;;;;6.18;3.58;;;13.50;99.90;;;;;;5054524;28;20102;-76
2023/09/01 06:53:18;;;;;;;7.03;3.72;;;13.70;99.90;;;;;;5065073;28;20043;-76
2023/09/01 06:55:46;;;;;;;5.95;3.78;;;13.80;99.90;;;;;;5073929;28;20066;-76
2023/09/01 06:58:13;;;;;;;7.43;3.38;;;14.00;99.90;;;;;;5074477;28;20046;-76
2023/09/01 07:00:39;;;;;;;7.32;3.03;;;14.10;99.90;;;;;;5074702;28;20101;-75
2023/09/01 07:03:04;;;;;;;6.45;3.53;;;14.20;99.90;;;;;;5091747;28;20040;-75
2023/09/01 07:05:30;;;;;;;5.50;3.00;;;14.30;99.90;;;;;;5062784;28;20041;-76
2023/09/01 07:07:58;;;;;;;8.50;2.97;;;14.40;99.90;;;;;;5070991;28;20040;-77
2023/09/01 07:10:24;;;;;;;4.95;2.22;;;14.50;99.90;;;;;;5071207;28;20043;-74
2023/09/01 07:12:49;;;;;;;6.28;2.65;;;14.50;99.90;;;;;;5057080;28;20055;-76
2023/09/01 07:15:15;;;;;;;5.20;2.42;;;14.70;99.90;;;;;;5054291;28;20048;-76
2023/09/01 07:17:41;;;;;;;4.30;2.72;;;14.80;99.90;;;;;;5072578;28;20060;-77
2023/09/01 07:20:10;;;;;;;5.25;3.00;;;14.80;99.90;;;;;;5070990;28;20048;-77
2023/09/01 07:22:36;;;;;;;4.97;2.60;;;14.80;99.90;;;;;;5072046;28;20036;-76
2023/09/01 07:25:03;;;;;;;5.85;2.92;;;14.90;99.90;;;;;;5054745;28;20024;-77
2023/09/01 07:27:29;;;;;;;7.50;3.17;;;15.00;99.90;;;;;;5053865;28;20480;-76
2023/09/01 07:29:54;;;;;;;6.05;2.75;;;15.00;99.90;;;;;;5056144;28;20047;-77
2023/09/01 07:32:20;;;;;;;6.78;2.85;;;15.00;99.90;;;;;;5057457;28;20052;-76
2023/09/01 07:34:47;;;;;;;7.20;3.10;;;15.00;99.90;;;;;;5075651;28;20124;-75
2023/09/01 07:37:13;;;;;;;9.68;3.00;;;15.00;99.90;;;;;;5056683;28;20137;-75
2023/09/01 07:39:39;;;;;;;5.00;2.53;;;15.00;99.90;;;;;;5058961;28;20075;-75
2023/09/01 07:42:05;;;;;;;5.65;2.97;;;15.00;99.90;;;;;;5057560;28;20106;-76
2023/09/01 07:44:31;;;;;;;6.28;2.83;;;15.00;99.90;;;;;;5070868;28;20054;-75
2023/09/01 07:46:57;;;;;;;5.65;2.88;;;15.10;99.90;;;;;;5077947;28;20115;-76
2023/09/01 07:49:23;;;;;;;6.93;2.92;;;15.20;99.90;;;;;;5057664;28;20043;-75
2023/09/01 07:51:49;;;;;;;5.57;2.72;;;15.20;99.90;;;;;;5074340;28;20407;-76
2023/09/01 07:54:15;;;;;;;6.40;2.72;;;15.30;99.90;;;;;;5077952;28;20040;-76
2023/09/01 07:56:40;;;;;;;8.52;3.20;;;15.40;99.90;;;;;;5075288;28;20055;-75
2023/09/01 07:59:06;;;;;;;6.82;3.10;;;15.50;99.90;;;;;;5056243;28;20102;-75
2023/09/01 08:01:32;;;;;;;6.45;3.03;;;15.60;99.90;;;;;;5049291;28;20052;-76
2023/09/01 08:04:00;;;;;;;9.48;2.72;;;15.70;99.90;;;;;;5046069;28;20047;-74
2023/09/01 08:06:29;;;;;;;5.40;2.55;;;15.80;99.90;;;;;;5049690;28;20041;-75
2023/09/01 08:08:56;;;;;;;6.60;2.55;;;15.90;99.90;;;;;;5051383;28;20047;-75
2023/09/01 08:11:22;;;;;;;3.55;2.13;;;15.90;99.90;;;;;;5046665;28;20053;-75
2023/09/01 08:13:47;;;;;;;5.03;2.13;;;16.00;99.90;;;;;;5033522;28;20389;-74
2023/09/01 08:16:17;;;;;;;6.25;2.60;;;16.00;99.90;;;;;;5033886;28;20516;-75
2023/09/01 08:18:43;;;;;;;6.55;2.20;;;16.10;99.90;;;;;;5035633;28;20527;-75
2023/09/01 08:21:08;;;;;;;9.00;2.30;;;16.10;99.90;;;;;;5033562;28;20033;-74
2023/09/01 08:23:34;;;;;;;4.68;1.92;;;16.10;99.90;;;;;;5034423;28;20469;-75
2023/09/01 08:26:04;;;;;;;8.57;2.33;;;16.10;99.90;;;;;;5033575;28;20480;-76
2023/09/01 08:28:31;;;;;;;6.25;2.20;;;16.20;99.90;;;;;;5031659;28;20053;-72
2023/09/01 08:31:04;;;;;;;4.38;1.98;;;16.20;99.90;;;;;;5033572;28;20060;-74
2023/09/01 08:33:29;;;;;;;4.43;2.10;;;16.30;99.90;;;;;;5039146;28;20754;-75
2023/09/01 08:35:55;;;;;;;5.25;2.55;;;16.40;99.90;;;;;;5040997;28;20071;-76
2023/09/01 08:38:21;;;;;;;5.20;2.20;;;16.50;99.90;;;;;;5051889;28;20125;-83
2023/09/01 08:40:48;;;;;;;5.15;2.55;;;16.60;99.90;;;;;;5052916;28;20056;-74
2023/09/01 08:43:15;;;;;;;4.85;2.08;;;16.70;99.90;;;;;;5041324;28;20045;-74
2023/09/01 08:45:41;;;;;;;7.00;2.28;;;16.80;99.90;;;;;;5035269;28;20041;-74
2023/09/01 08:48:07;;;;;;;6.35;2.10;;;16.90;99.90;;;;;;5045994;28;20044;-74
2023/09/01 08:50:34;;;;;;;4.65;2.13;;;16.90;99.90;;;;;;5034615;28;20128;-73
2023/09/01 08:53:02;;;;;;;4.82;1.90;;;17.00;99.90;;;;;;5038516;28;20374;-73
2023/09/01 08:55:27;;;;;;;5.47;1.80;;;17.20;99.90;;;;;;5050356;28;20033;-71
2023/09/01 08:57:53;;;;;;;3.20;1.73;;;17.30;99.90;;;;;;5047888;28;20040;-70
2023/09/01 09:00:18;;;;;;;4.63;1.83;;;17.40;99.90;;;;;;5037307;28;20048;-73
2023/09/01 09:02:45;;;;;;;6.95;2.05;;;17.70;99.90;;;;;;5089306;28;20113;-70
2023/09/01 09:05:13;;;;;;;5.22;2.25;;;17.90;99.90;;;;;;5076801;28;20491;-77
2023/09/01 09:07:39;;;;;;;6.03;2.30;;;18.00;99.90;;;;;;5067941;28;20045;-78
2023/09/01 09:10:06;;;;;;;4.55;2.10;;;18.20;99.90;;;;;;5091648;28;20548;-71
2023/09/01 09:12:41;;;;;;;4.93;2.20;;;18.40;99.90;;;;;;5094832;28;20399;-71
2023/09/01 09:15:07;;;;;;;4.28;1.90;;;18.40;99.90;;;;;;5094185;28;20306;-72
2023/09/01 09:17:40;;;;;;;5.20;1.70;;;18.60;99.90;;;;;;5093703;28;20050;-74
2023/09/01 09:20:06;;;;;;;3.30;1.80;;;18.90;99.90;;;;;;5075647;28;20113;-72
2023/09/01 09:22:48;;;;;;;4.68;1.67;;;19.40;99.90;;;;;;5074370;28;20425;-75
2023/09/01 09:25:31;;;;;;;5.05;1.70;;;19.90;99.90;;;;;;5034510;28;20059;-76
2023/09/01 09:28:09;;;;;;;4.40;1.55;;;20.70;99.90;;;;;;5034348;28;20045;-74
2023/09/01 09:30:35;;;;;;;4.30;1.65;;;21.20;99.90;;;;;;5051834;28;20516;-74
2023/09/01 09:33:05;;;;;;;4.68;1.60;;;21.40;99.90;;;;;;5091598;28;20066;-75
2023/09/01 09:35:35;;;;;;;4.80;1.50;;;21.50;99.90;;;;;;5074547;28;20550;-76
2023/09/01 09:38:02;;;;;;;3.78;1.60;;;21.90;99.90;;;;;;5075581;28;20036;-74
2023/09/01 09:40:28;;;;;;;4.28;2.00;;;22.30;99.90;;;;;;5075797;28;20127;-72
2023/09/01 09:43:00;;;;;;;2.80;1.30;;;23.00;99.90;;;;;;5075979;28;20048;-72
2023/09/01 09:45:37;;;;;;;3.80;1.20;;;23.90;99.90;;;;;;5075504;28;20059;-75
2023/09/01 09:48:05;;;;;;;3.88;1.50;;;25.20;99.90;;;;;;5093533;28;20059;-74
2023/09/01 09:50:33;;;;;;;3.20;1.20;;;26.10;97.70;;;;;;5075431;28;20051;-74
2023/09/01 09:53:05;;;;;;;4.40;1.45;;;26.70;95.60;;;;;;5073368;28;20364;-79
2023/09/01 09:55:43;;;;;;;5.10;1.58;;;27.00;95.80;;;;;;5092286;28;20051;-83
2023/09/01 09:58:09;;;;;;;3.10;1.15;;;27.40;95.40;;;;;;5092821;28;20036;-80
2023/09/01 10:00:53;;;;;;;3.40;1.10;;;27.60;94.10;;;;;;5093865;28;20068;-78
2023/09/01 10:03:25;;;;;;;3.50;1.50;;;27.10;93.70;;;;;;5075559;28;20113;-78
2023/09/01 10:05:51;;;;;;;4.32;1.40;;;26.30;93.90;;;;;;5092701;28;20032;-77
2023/09/01 10:08:20;;;;;;;3.13;1.20;;;25.50;93.70;;;;;;5073194;28;20044;-76
2023/09/01 10:10:46;;;;;;;6.20;1.77;;;25.10;94.10;;;;;;5067887;28;20468;-75
2023/09/01 10:13:12;;;;;;;4.32;1.52;;;24.40;94.70;;;;;;5092989;28;20051;-72
2023/09/01 10:15:39;;;;;;;3.38;1.33;;;24.00;96.20;;;;;;5092976;28;20043;-75
2023/09/01 10:18:08;;;;;;;2.75;1.08;;;23.90;96.60;;;;;;5071456;28;20400;-75
2023/09/01 10:20:36;;;;;;;2.58;1.00;;;23.50;93.70;;;;;;5067163;28;20040;-74
2023/09/01 10:23:03;;;;;;;2.63;1.15;;;22.90;95.70;;;;;;5071784;28;20048;-74
2023/09/01 10:25:29;;;;;;;2.75;1.13;;;22.80;96.50;;;;;;5073311;28;20105;-74
2023/09/01 10:28:14;;;;;;;3.65;1.20;;;22.50;96.70;;;;;;5072256;28;20116;-74
2023/09/01 10:30:44;;;;;;;4.55;1.20;;;22.50;96.60;;;;;;5083464;28;20127;-74
2023/09/01 10:33:23;;;;;;;2.53;1.08;;;22.60;96.70;;;;;;5074037;28;20048;-74
2023/09/01 10:35:53;;;;;;;4.70;1.33;;;22.70;97.50;;;;;;5092351;28;20051;-74
2023/09/01 10:38:21;;;;;;;3.15;1.10;;;23.10;95.60;;;;;;5092654;28;20104;-74
2023/09/01 10:40:49;;;;;;;4.10;1.08;;;23.30;96.90;;;;;;5073733;28;20387;-74
2023/09/01 10:43:41;;;;;;;3.65;1.17;;;23.40;96.80;;;;;;5093400;28;20395;-78
2023/09/01 10:46:16;;;;;;;3.13;1.25;;;23.80;95.50;;;;;;5093131;28;20048;-73
2023/09/01 10:48:57;;;;;;;3.08;1.20;;;23.90;95.50;;;;;;5092499;28;20496;-74
2023/09/01 10:51:37;;;;;;;4.30;1.02;;;24.20;97.30;;;;;;5074629;28;20068;-77
2023/09/01 10:54:22;;;;;;;2.40;1.05;;;24.40;95.50;;;;;;5074069;28;20044;-77
2023/09/01 10:56:59;;;;;;;2.83;1.20;;;24.20;94.80;;;;;;5061236;28;20052;-79
2023/09/01 10:59:31;;;;;;;2.90;1.10;;;24.30;95.30;;;;;;5044689;28;20102;-72
2023/09/01 11:02:20;;;;;;;2.53;1.10;;;24.20;95.00;;;;;;5071416;28;20052;-73
2023/09/01 11:04:47;;;;;;;2.33;1.00;;;24.10;95.70;;;;;;5040215;28;20491;-73
2023/09/01 11:07:13;;;;;;;4.35;1.35;;;24.20;96.00;;;;;;5070422;28;20090;-73
2023/09/01 11:09:44;;;;;;;2.47;1.00;;;24.40;96.40;;;;;;5053984;28;20044;-73
2023/09/01 11:12:12;;;;;;;3.40;1.23;;;24.40;95.70;;;;;;5054199;28;20509;-74
2023/09/01 11:14:52;;;;;;;3.65;1.33;;;24.20;95.40;;;;;;5054365;28;20203;-74
2023/09/01 11:17:41;;;;;;;4.25;1.23;;;23.80;95.90;;;;;;5053288;28;20139;-74
2023/09/01 11:20:09;;;;;;;3.53;1.50;;;23.70;97.10;;;;;;5072064;28;20156;-76
2023/09/01 11:22:40;;;;;;;2.80;1.10;;;23.50;96.90;;;;;;5052552;28;20048;-73
2023/09/01 11:25:14;;;;;;;3.08;1.20;;;23.50;95.60;;;;;;5080506;28;20086;-72
2023/09/01 11:27:49;;;;;;;5.72;1.70;;;23.40;96.20;;;;;;5055983;28;20040;-73
2023/09/01 11:30:17;;;;;;;3.20;1.60;;;23.40;97.50;;;;;;5071551;28;20112;-73
2023/09/01 11:32:43;;;;;;;4.85;1.65;;;23.30;96.70;;;;;;5059925;28;20485;-73
2023/09/01 11:35:21;;;;;;;4.00;1.40;;;23.20;96.80;;;;;;5073967;28;20109;-73
2023/09/01 11:37:46;;;;;;;3.63;1.40;;;23.10;97.20;;;;;;5091031;28;20044;-73
2023/09/01 11:40:13;;;;;;;4.97;1.45;;;23.10;96.50;;;;;;5092645;28;20051;-73
2023/09/01 11:42:42;;;;;;;3.78;1.48;;;23.10;96.80;;;;;;5092362;28;20044;-73
2023/09/01 11:45:10;;;;;;;3.85;1.50;;;23.30;96.70;;;;;;5091224;28;20044;-73
2023/09/01 11:47:36;;;;;;;4.05;1.60;;;23.40;96.30;;;;;;5092510;28;20046;-73
2023/09/01 11:50:03;;;;;;;3.45;1.30;;;23.50;96.10;;;;;;5074100;28;20040;-72
2023/09/01 11:52:29;;;;;;;3.00;1.20;;;23.50;97.00;;;;;;5073682;28;20048;-72
2023/09/01 11:54:55;;;;;;;3.22;1.42;;;23.70;97.00;;;;;;5073168;28;20043;-73
2023/09/01 11:57:21;;;;;;;3.85;1.45;;;23.80;96.00;;;;;;5091244;28;21599;-73
2023/09/01 11:59:49;;;;;;;4.90;1.60;;;24.00;96.40;;;;;;5092069;28;20048;-75
2023/09/01 12:02:18;;;;;;;4.03;1.60;;;24.10;96.20;;;;;;5091781;28;20062;-74
2023/09/01 12:04:51;;;;;;;4.40;1.80;;;24.20;96.50;;;;;;5072880;28;20060;-74
2023/09/01 12:07:23;;;;;;;4.90;1.80;;;24.50;96.00;;;;;;5092525;28;20040;-73
2023/09/01 12:09:49;;;;;;;5.22;1.90;;;24.50;95.80;;;;;;5073139;28;20048;-73
2023/09/01 12:12:15;;;;;;;3.83;1.85;;;24.50;95.50;;;;;;5073251;28;20051;-73
2023/09/01 12:14:41;;;;;;;3.80;1.75;;;24.50;95.60;;;;;;5074552;28;20040;-74
2023/09/01 12:17:28;;;;;;;4.30;2.05;;;24.60;95.80;;;;;;5095726;28;20093;-74
2023/09/01 12:19:53;;;;;;;7.05;2.22;;;24.80;95.90;;;;;;5094442;28;20046;-74
2023/09/01 12:22:20;;;;;;;4.88;2.47;;;24.60;94.70;;;;;;5077670;28;20072;-75
2023/09/01 12:24:57;;;;;;;5.40;2.00;;;25.00;94.90;;;;;;5095203;28;20048;-77
2023/09/01 12:27:23;;;;;;;6.85;2.05;;;24.90;95.10;;;;;;5075009;28;20476;-79
2023/09/01 12:29:49;;;;;;;4.63;2.15;;;25.20;95.50;;;;;;5062167;28;20040;-74
2023/09/01 12:32:16;;;;;;;5.65;2.17;;;25.60;95.00;;;;;;5095628;28;20093;-74
2023/09/01 12:34:42;;;;;;;6.25;2.35;;;25.60;95.50;;;;;;5093810;28;20047;-74
2023/09/01 12:37:08;;;;;;;7.15;2.60;;;25.60;95.10;;;;;;5077173;28;20486;-74
2023/09/01 12:39:34;;;;;;;6.80;2.20;;;25.30;94.80;;;;;;5075195;28;20121;-74
2023/09/01 12:42:00;;;;;;;5.25;2.30;;;25.10;95.20;;;;;;5094761;28;20109;-74
2023/09/01 12:44:28;;;;;;;3.45;2.10;;;25.00;95.60;;;;;;5077186;28;20048;-74
2023/09/01 12:46:54;;;;;;;4.70;2.03;;;24.90;94.90;;;;;;5076398;28;20391;-74
2023/09/01 12:49:20;;;;;;;5.38;2.00;;;24.90;95.60;;;;;;5077002;28;20055;-74